createdAt,value
2018-05-25T00:02:01.218Z,74.18
2018-05-25T00:04:32.258Z,74.11
2018-05-25T00:07:03.288Z,73.92
2018-05-25T00:09:34.332Z,73.88
2018-05-25T00:12:05.331Z,74.01
2018-05-25T00:14:36.335Z,74.23
2018-05-25T00:17:07.313Z,74.29
2018-05-25T00:19:38.350Z,74.29
2018-05-25T00:22:09.363Z,74.26
2018-05-25T00:24:40.373Z,74.15
2018-05-25T00:27:11.386Z,74.20
2018-05-25T00:29:42.366Z,74.09
2018-05-25T00:32:13.377Z,74.04
2018-05-25T00:34:44.408Z,74.33
2018-05-25T00:37:15.387Z,74.51
2018-05-25T00:39:46.425Z,74.61
2018-05-25T00:42:17.420Z,74.84
2018-05-25T00:44:48.395Z,74.98
2018-05-25T00:47:19.404Z,75.09
2018-05-25T00:49:50.448Z,75.04
2018-05-25T00:52:21.436Z,75.21
2018-05-25T00:55:04.729Z,75.43
2018-05-25T00:57:35.740Z,75.64
2018-05-25T01:00:06.868Z,75.71
2018-05-25T01:02:37.907Z,75.63
2018-05-25T01:05:08.943Z,75.51
2018-05-25T01:07:39.949Z,75.34
2018-05-25T01:10:10.956Z,75.31
2018-05-25T01:12:41.982Z,75.28
2018-05-25T01:15:13.042Z,75.21
2018-05-25T01:17:44.065Z,74.88
2018-05-25T01:20:15.076Z,74.62
2018-05-25T01:22:46.079Z,74.38
2018-05-25T01:25:17.064Z,74.35
2018-05-25T01:27:48.092Z,74.30
2018-05-25T01:30:19.109Z,74.34
2018-05-25T01:32:50.116Z,74.26
2018-05-25T01:35:21.118Z,74.14
2018-05-25T01:37:52.113Z,74.11
2018-05-25T01:40:23.120Z,73.77
2018-05-25T01:42:54.148Z,73.52
2018-05-25T01:45:25.154Z,73.51
2018-05-25T01:47:56.189Z,73.62
2018-05-25T01:50:27.258Z,73.43
2018-05-25T01:52:58.260Z,73.66
2018-05-25T01:55:29.324Z,73.83
2018-05-25T01:58:00.326Z,72.98
2018-05-25T02:00:31.363Z,72.83
2018-05-25T02:03:02.417Z,72.70
2018-05-25T02:05:33.449Z,72.21
2018-05-25T02:08:04.489Z,72.52
2018-05-25T02:10:35.498Z,72.33
2018-05-25T02:13:06.520Z,72.34
2018-05-25T02:15:37.522Z,72.66
2018-05-25T02:18:08.546Z,72.98
2018-05-25T02:20:39.595Z,72.65
2018-05-25T02:23:10.706Z,72.73
2018-05-25T02:25:41.737Z,73.01
2018-05-25T02:28:12.782Z,72.90
2018-05-25T02:30:43.787Z,73.35
2018-05-25T02:33:14.824Z,73.30
2018-05-25T02:35:45.784Z,73.06
2018-05-25T02:38:16.812Z,73.45
2018-05-25T02:40:47.815Z,73.62
2018-05-25T02:43:18.866Z,73.63
2018-05-25T02:45:49.853Z,73.03
2018-05-25T02:48:20.888Z,73.23
2018-05-25T02:50:51.883Z,73.31
2018-05-25T02:53:22.906Z,73.43
2018-05-25T02:55:53.924Z,73.77
2018-05-25T02:58:24.943Z,74.11
2018-05-25T03:00:55.948Z,74.24
2018-05-25T03:03:26.960Z,74.31
2018-05-25T03:05:57.970Z,74.36
2018-05-25T03:08:29.002Z,74.46
2018-05-25T03:11:00.025Z,74.56
2018-05-25T03:13:31.012Z,74.74
2018-05-25T03:16:02.009Z,74.93
2018-05-25T03:18:32.990Z,74.90
2018-05-25T03:21:04.034Z,74.88
2018-05-25T03:23:35.011Z,74.72
2018-05-25T03:26:06.116Z,74.48
2018-05-25T03:28:37.024Z,74.65
2018-05-25T03:31:08.033Z,74.66
2018-05-25T03:33:39.044Z,74.48
2018-05-25T03:36:10.057Z,74.46
2018-05-25T03:38:41.075Z,74.49
2018-05-25T03:41:12.103Z,74.49
2018-05-25T03:43:43.121Z,74.46
2018-05-25T03:46:14.174Z,74.50
2018-05-25T03:48:45.192Z,74.46
2018-05-25T03:51:16.239Z,74.43
2018-05-25T03:53:47.322Z,74.20
2018-05-25T03:56:18.319Z,74.29
2018-05-25T04:01:57.512Z,74.26
2018-05-25T04:04:28.499Z,74.06
2018-05-25T04:06:59.469Z,73.96
2018-05-25T04:09:30.487Z,73.51
2018-05-25T04:12:01.453Z,72.76
2018-05-25T04:14:32.493Z,72.76
2018-05-25T04:17:03.497Z,72.44
2018-05-25T04:19:34.564Z,72.21
2018-05-25T04:22:05.564Z,72.32
2018-05-25T04:24:36.583Z,72.29
2018-05-25T04:27:07.600Z,72.09
2018-05-25T04:29:38.635Z,71.98
2018-05-25T04:32:09.614Z,71.98
2018-05-25T04:34:40.625Z,71.58
2018-05-25T04:37:11.636Z,71.06
2018-05-25T04:39:42.651Z,70.73
2018-05-25T04:42:13.674Z,70.10
2018-05-25T04:44:44.657Z,69.26
2018-05-25T04:47:15.646Z,68.43
2018-05-25T04:49:46.674Z,67.95
2018-05-25T04:52:17.678Z,67.69
2018-05-25T04:54:48.665Z,67.11
2018-05-25T04:57:19.693Z,66.55
2018-05-25T04:59:50.732Z,65.84
2018-05-25T05:02:21.713Z,65.00
2018-05-25T05:04:52.733Z,64.82
2018-05-25T05:07:23.754Z,64.40
2018-05-25T05:09:54.772Z,64.34
2018-05-25T05:12:25.783Z,64.13
2018-05-25T05:14:56.798Z,63.52
2018-05-25T05:17:27.830Z,62.20
2018-05-25T05:19:58.831Z,62.44
2018-05-25T05:22:29.846Z,61.97
2018-05-25T05:25:00.820Z,61.32
2018-05-25T05:27:31.825Z,61.14
2018-05-25T05:30:02.886Z,60.59
2018-05-25T05:32:33.944Z,60.22
2018-05-25T05:35:04.935Z,59.43
2018-05-25T05:37:35.970Z,58.74
2018-05-25T05:40:06.912Z,58.79
2018-05-25T05:42:37.931Z,59.14
2018-05-25T05:45:08.918Z,58.46
2018-05-25T05:47:39.912Z,58.68
2018-05-25T05:50:10.958Z,58.20
2018-05-25T05:52:41.973Z,57.34
2018-05-25T05:55:13.028Z,56.18
2018-05-25T05:57:44.067Z,55.98
2018-05-25T06:00:15.056Z,54.03
2018-05-25T06:02:46.104Z,46.50
2018-05-25T06:05:17.150Z,43.33
2018-05-25T06:07:48.215Z,42.54
2018-05-25T06:10:19.208Z,44.17
2018-05-25T06:12:50.301Z,45.32
2018-05-25T06:15:21.379Z,38.96
2018-05-25T06:17:52.371Z,29.45
2018-05-25T06:20:23.351Z,21.78
2018-05-25T06:22:54.350Z,17.81
2018-05-25T06:25:25.399Z,15.75
2018-05-25T06:27:56.390Z,14.10
2018-05-25T06:30:27.395Z,12.44
2018-05-25T06:32:58.421Z,11.16
2018-05-25T06:35:29.430Z,9.85
2018-05-25T06:38:00.414Z,8.83
2018-05-25T06:40:31.423Z,8.13
2018-05-25T06:43:02.433Z,7.62
2018-05-25T06:45:33.468Z,7.45
2018-05-25T06:48:04.489Z,7.08
2018-05-25T06:50:35.635Z,7.08
2018-05-25T06:53:06.604Z,6.89
2018-05-25T06:55:37.623Z,6.27
2018-05-25T06:58:08.606Z,5.91
2018-05-25T07:00:39.658Z,5.42
2018-05-25T07:03:10.669Z,4.89
2018-05-25T07:05:41.742Z,4.59
2018-05-25T07:08:12.739Z,4.75
2018-05-25T07:10:43.806Z,4.96
2018-05-25T07:13:14.804Z,4.97
2018-05-25T07:15:45.839Z,5.00
2018-05-25T07:18:16.880Z,5.01
2018-05-25T07:20:47.865Z,4.91
2018-05-25T07:23:18.914Z,4.63
2018-05-25T07:25:49.890Z,4.46
2018-05-25T07:28:20.898Z,4.31
2018-05-25T07:30:51.924Z,4.11
2018-05-25T07:33:22.976Z,4.12
2018-05-25T07:35:53.997Z,4.04
2018-05-25T07:38:25.008Z,4.11
2018-05-25T07:40:56.016Z,4.53
2018-05-25T07:43:27.028Z,4.46
2018-05-25T07:45:57.984Z,4.68
2018-05-25T07:48:29.050Z,4.62
2018-05-25T07:51:00.044Z,4.45
2018-05-25T07:53:31.177Z,4.45
2018-05-25T07:56:02.197Z,4.34
2018-05-25T07:58:33.229Z,4.22
2018-05-25T08:01:04.314Z,3.97
2018-05-25T08:03:35.296Z,3.86
2018-05-25T08:06:06.383Z,3.74
2018-05-25T08:08:37.402Z,3.50
2018-05-25T08:11:08.396Z,3.56
2018-05-25T08:13:39.385Z,3.70
2018-05-25T08:16:10.397Z,3.71
2018-05-25T08:18:41.438Z,3.67
2018-05-25T08:21:12.444Z,3.52
2018-05-25T08:23:43.488Z,3.34
2018-05-25T08:26:14.478Z,3.50
2018-05-25T08:28:45.491Z,3.56
2018-05-25T08:31:16.488Z,3.57
2018-05-25T08:33:47.549Z,3.58
2018-05-25T08:36:18.509Z,3.72
2018-05-25T08:38:49.542Z,3.53
2018-05-25T08:41:20.562Z,3.23
2018-05-25T08:43:51.599Z,3.09
2018-05-25T08:46:22.563Z,2.97
2018-05-25T08:48:53.612Z,5.25
2018-05-25T08:51:24.682Z,8.40
2018-05-25T08:53:55.698Z,11.28
2018-05-25T08:56:26.682Z,13.78
2018-05-25T08:58:57.690Z,12.32
2018-05-25T09:01:28.670Z,10.68
2018-05-25T09:03:59.689Z,9.73
2018-05-25T09:06:30.731Z,8.77
2018-05-25T09:09:01.744Z,7.47
2018-05-25T09:11:32.804Z,6.44
2018-05-25T09:14:03.832Z,5.99
2018-05-25T09:16:34.921Z,5.72
2018-05-25T09:19:05.912Z,5.48
2018-05-25T09:21:36.981Z,5.38
2018-05-25T09:24:08.034Z,4.98
2018-05-25T09:26:39.078Z,4.54
2018-05-25T09:29:10.083Z,4.70
2018-05-25T09:31:41.140Z,4.64
2018-05-25T09:34:12.155Z,3.83
2018-05-25T09:36:43.164Z,3.70
2018-05-25T09:39:14.205Z,3.19
2018-05-25T09:41:45.212Z,2.97
2018-05-25T09:44:16.292Z,2.93
2018-05-25T09:46:47.306Z,3.19
2018-05-25T09:49:18.345Z,3.25
2018-05-25T09:51:49.346Z,3.35
2018-05-25T09:54:20.366Z,3.27
2018-05-25T09:56:58.516Z,3.16
2018-05-25T09:59:29.554Z,2.66
2018-05-25T10:02:00.563Z,2.41
2018-05-25T10:04:31.601Z,2.67
2018-05-25T10:07:02.599Z,2.94
2018-05-25T10:09:33.667Z,3.78
2018-05-25T10:12:04.670Z,3.87
2018-05-25T10:14:35.680Z,3.54
2018-05-25T10:17:06.737Z,3.15
2018-05-25T10:19:37.766Z,3.17
2018-05-25T10:22:08.806Z,3.25
2018-05-25T10:24:40.750Z,3.25
2018-05-25T10:27:11.721Z,4.07
2018-05-25T10:29:42.762Z,6.40
2018-05-25T10:32:13.771Z,8.48
2018-05-25T10:34:44.822Z,10.26
2018-05-25T10:37:15.806Z,11.71
2018-05-25T10:39:46.852Z,11.90
2018-05-25T10:42:17.830Z,12.44
2018-05-25T10:44:48.874Z,11.33
2018-05-25T10:47:19.901Z,10.22
2018-05-25T10:49:50.958Z,9.29
2018-05-25T10:52:21.987Z,9.38
2018-05-25T10:54:53.120Z,10.18
2018-05-25T10:57:24.153Z,12.05
2018-05-25T10:59:55.172Z,14.12
2018-05-25T11:02:26.194Z,15.24
2018-05-25T11:04:57.223Z,16.82
2018-05-25T11:07:28.262Z,18.10
2018-05-25T11:09:59.348Z,19.07
2018-05-25T11:12:30.365Z,19.64
2018-05-25T11:15:01.361Z,20.52
2018-05-25T11:17:32.416Z,21.22
2018-05-25T11:20:03.415Z,21.53
2018-05-25T11:22:34.444Z,22.42
2018-05-25T11:25:05.513Z,22.63
2018-05-25T11:27:36.567Z,22.71
2018-05-25T11:30:07.588Z,23.36
2018-05-25T11:32:38.618Z,23.20
2018-05-25T11:35:09.633Z,22.84
2018-05-25T11:37:40.641Z,22.90
2018-05-25T11:40:11.643Z,22.93
2018-05-25T11:42:42.700Z,23.46
2018-05-25T11:45:13.676Z,24.22
2018-05-25T11:47:44.661Z,24.21
2018-05-25T11:50:15.693Z,24.12
2018-05-25T11:52:46.702Z,24.30
2018-05-25T11:55:17.710Z,25.02
2018-05-25T11:57:48.760Z,25.08
2018-05-25T12:00:19.776Z,24.33
2018-05-25T12:02:50.779Z,24.13
2018-05-25T12:05:21.781Z,23.88
2018-05-25T12:07:52.786Z,24.08
2018-05-25T12:10:23.837Z,23.55
2018-05-25T12:12:54.836Z,23.70
2018-05-25T12:15:25.860Z,23.72
2018-05-25T12:17:56.860Z,23.85
2018-05-25T12:20:27.878Z,23.96
2018-05-25T12:22:58.878Z,23.79
2018-05-25T12:25:29.903Z,23.79
2018-05-25T12:28:00.941Z,24.11
2018-05-25T12:30:31.972Z,24.69
2018-05-25T12:33:03.013Z,25.01
2018-05-25T12:35:34.055Z,24.76
2018-05-25T12:38:05.071Z,24.04
2018-05-25T12:40:36.092Z,24.37
2018-05-25T12:43:07.101Z,24.42
2018-05-25T12:45:38.073Z,23.93
2018-05-25T12:48:09.068Z,23.82
2018-05-25T12:50:40.139Z,22.65
2018-05-25T12:53:11.107Z,20.63
2018-05-25T12:55:42.131Z,21.65
2018-05-25T12:58:13.084Z,21.40
2018-05-25T13:00:44.112Z,20.55
2018-05-25T13:03:15.143Z,21.30
2018-05-25T13:05:46.153Z,21.96
2018-05-25T13:08:17.164Z,22.41
2018-05-25T13:10:48.166Z,22.83
2018-05-25T13:13:19.178Z,22.57
2018-05-25T13:15:50.184Z,22.83
2018-05-25T13:18:21.190Z,21.97
2018-05-25T13:20:52.169Z,21.54
2018-05-25T13:23:23.196Z,21.58
2018-05-25T13:25:54.217Z,21.30
2018-05-25T13:28:25.229Z,21.28
2018-05-25T13:30:56.211Z,24.30
2018-05-25T13:33:27.223Z,26.80
2018-05-25T13:35:58.237Z,30.53
2018-05-25T13:38:29.264Z,32.79
2018-05-25T13:41:00.289Z,34.89
2018-05-25T13:43:31.287Z,36.99
2018-05-25T13:46:02.553Z,39.10
2018-05-25T13:48:33.566Z,41.94
2018-05-25T13:51:04.606Z,45.19
2018-05-25T13:53:35.611Z,53.47
2018-05-25T13:56:06.643Z,75.28
2018-05-25T13:58:37.674Z,87.74
2018-05-25T14:01:08.682Z,89.83
2018-05-25T14:03:39.707Z,88.53
2018-05-25T14:06:10.728Z,87.01
2018-05-25T14:08:41.756Z,85.05
2018-05-25T14:11:12.747Z,82.33
2018-05-25T14:13:43.722Z,81.06
2018-05-25T14:16:14.771Z,80.19
2018-05-25T14:18:45.711Z,79.69
2018-05-25T14:21:16.734Z,79.93
2018-05-25T14:23:47.712Z,77.32
2018-05-25T14:26:18.789Z,77.85
2018-05-25T14:28:49.798Z,76.15
2018-05-25T14:31:20.835Z,74.70
2018-05-25T14:33:51.853Z,71.47
2018-05-25T14:36:22.868Z,68.56
2018-05-25T14:38:53.822Z,62.53
2018-05-25T14:41:24.958Z,58.03
2018-05-25T14:43:55.904Z,58.50
2018-05-25T14:46:26.911Z,56.96
2018-05-25T14:48:57.928Z,54.62
2018-05-25T14:51:28.892Z,52.57
2018-05-25T14:54:00.800Z,52.17
2018-05-25T14:56:31.825Z,52.91
2018-05-25T14:59:02.893Z,52.78
2018-05-25T15:01:33.832Z,53.60
2018-05-25T15:04:05.086Z,53.64
2018-05-25T15:06:36.157Z,55.76
2018-05-25T15:09:07.180Z,55.39
2018-05-25T15:11:38.226Z,55.64
2018-05-25T15:14:09.210Z,55.91
2018-05-25T15:16:40.206Z,55.72
2018-05-25T15:19:11.222Z,57.41
2018-05-25T15:21:42.270Z,57.81
2018-05-25T15:24:13.291Z,58.24
2018-05-25T15:26:44.350Z,58.58
2018-05-25T15:29:15.346Z,57.70
2018-05-25T15:31:46.410Z,55.46
2018-05-25T15:34:17.367Z,55.62
2018-05-25T15:36:48.357Z,55.65
2018-05-25T15:39:19.360Z,53.99
2018-05-25T15:41:50.401Z,53.40
2018-05-25T15:44:21.401Z,53.25
2018-05-25T15:46:52.433Z,52.38
2018-05-25T15:49:23.432Z,50.55
2018-05-25T15:51:54.476Z,50.05
2018-05-25T15:54:25.460Z,49.41
2018-05-25T15:56:56.486Z,48.40
2018-05-25T15:59:27.477Z,49.29
2018-05-25T16:01:58.474Z,48.82
2018-05-25T16:04:29.512Z,47.08
2018-05-25T16:07:00.556Z,47.57
2018-05-25T16:09:31.547Z,46.98
2018-05-25T16:12:02.599Z,46.93
2018-05-25T16:14:33.602Z,46.67
2018-05-25T16:17:04.612Z,46.30
2018-05-25T16:19:35.597Z,44.95
2018-05-25T16:22:06.609Z,43.86
2018-05-25T16:24:37.605Z,44.89
2018-05-25T16:27:08.647Z,44.27
2018-05-25T16:29:39.669Z,43.80
2018-05-25T16:32:10.687Z,44.83
2018-05-25T16:34:41.734Z,44.76
2018-05-25T16:37:12.836Z,44.80
2018-05-25T16:39:43.883Z,46.33
2018-05-25T16:42:14.900Z,46.38
2018-05-25T16:44:45.940Z,46.71
2018-05-25T16:47:16.989Z,48.07
2018-05-25T16:49:48.002Z,48.67
2018-05-25T16:52:19.042Z,48.30
2018-05-25T16:54:50.008Z,47.84
2018-05-25T16:57:21.019Z,48.82
2018-05-25T16:59:52.023Z,49.52
2018-05-25T17:02:23.014Z,50.37
2018-05-25T17:04:53.991Z,50.75
2018-05-25T17:07:25.038Z,50.98
2018-05-25T17:09:56.027Z,51.01
2018-05-25T17:12:27.079Z,50.67
2018-05-25T17:14:58.099Z,50.34
2018-05-25T17:17:29.136Z,49.51
2018-05-25T17:20:00.133Z,49.48
2018-05-25T17:22:38.366Z,49.33
2018-05-25T17:25:09.356Z,49.60
2018-05-25T17:27:40.367Z,49.57
2018-05-25T17:30:11.389Z,49.85
2018-05-25T17:32:42.452Z,49.67
2018-05-25T17:35:13.431Z,49.67
2018-05-25T17:37:44.460Z,50.35
2018-05-25T17:40:15.494Z,50.27
2018-05-25T17:42:46.533Z,50.71
2018-05-25T17:45:17.534Z,50.97
2018-05-25T17:47:48.541Z,50.67
2018-05-25T17:50:19.528Z,50.89
2018-05-25T17:52:50.568Z,50.86
2018-05-25T17:55:21.581Z,50.85
2018-05-25T17:57:52.657Z,51.07
2018-05-25T18:00:23.933Z,51.11
2018-05-25T18:02:54.969Z,51.10
2018-05-25T18:05:25.943Z,50.47
2018-05-25T18:07:56.938Z,50.52
2018-05-25T18:10:27.955Z,50.48
2018-05-25T18:12:59.025Z,50.25
2018-05-25T18:15:30.025Z,50.69
2018-05-25T18:18:01.091Z,50.74
2018-05-25T18:20:32.134Z,51.26
2018-05-25T18:23:03.127Z,51.60
2018-05-25T18:25:34.200Z,52.42
2018-05-25T18:28:05.198Z,53.50
2018-05-25T18:30:36.207Z,53.80
2018-05-25T18:33:07.191Z,53.84
2018-05-25T18:35:38.231Z,53.92
2018-05-25T18:38:09.545Z,54.21
2018-05-25T18:40:41.301Z,54.87
2018-05-25T18:43:12.564Z,55.20
2018-05-25T18:45:44.012Z,55.78
2018-05-25T18:48:15.107Z,56.25
2018-05-25T18:50:46.860Z,56.84
2018-05-25T18:53:18.646Z,57.45
2018-05-25T18:55:50.285Z,58.54
2018-05-25T18:58:23.011Z,59.00
2018-05-25T19:00:55.348Z,59.53
2018-05-25T19:03:27.154Z,60.22
2018-05-25T19:05:59.207Z,61.01
2018-05-25T19:08:30.480Z,61.58
2018-05-25T19:11:01.520Z,61.98
2018-05-25T19:13:32.579Z,62.46
2018-05-25T19:16:03.618Z,63.04
2018-05-25T19:18:34.684Z,63.56
2018-05-25T19:21:05.690Z,64.15
2018-05-25T19:23:36.686Z,64.69
2018-05-25T19:26:07.657Z,65.15
2018-05-25T19:28:38.672Z,65.52
2018-05-25T19:31:09.709Z,65.76
2018-05-25T19:33:40.873Z,66.01
2018-05-25T19:36:11.929Z,65.88
2018-05-25T19:38:42.975Z,65.93
2018-05-25T19:41:13.990Z,66.32
2018-05-25T19:43:44.960Z,66.54
2018-05-25T19:46:16.020Z,66.90
2018-05-25T19:48:47.029Z,67.06
2018-05-25T19:51:18.050Z,67.12
2018-05-25T19:53:49.116Z,67.32
2018-05-25T19:56:20.162Z,67.46
2018-05-25T19:58:51.168Z,67.42
2018-05-25T20:01:22.174Z,67.39
2018-05-25T20:03:53.246Z,67.13
2018-05-25T20:06:24.400Z,67.09
2018-05-25T20:08:55.462Z,66.80
2018-05-25T20:11:26.740Z,66.72
2018-05-25T20:13:57.745Z,66.81
2018-05-25T20:16:28.791Z,66.74
2018-05-25T20:18:59.798Z,66.39
2018-05-25T20:21:30.848Z,66.38
2018-05-25T20:24:01.884Z,66.39
2018-05-25T20:26:32.888Z,66.47
2018-05-25T20:29:03.973Z,66.57
2018-05-25T20:31:35.019Z,66.57
2018-05-25T20:34:06.042Z,66.69
2018-05-25T20:36:37.041Z,66.72
2018-05-25T20:39:08.098Z,66.82
2018-05-25T20:41:39.135Z,66.85
2018-05-25T20:44:10.187Z,67.04
2018-05-25T20:46:41.238Z,67.16
2018-05-25T20:49:12.236Z,67.25
2018-05-25T20:51:43.273Z,67.38
2018-05-25T20:54:14.755Z,67.69
2018-05-25T20:56:45.825Z,67.85
2018-05-25T20:59:16.906Z,68.14
2018-05-25T21:01:47.896Z,68.37
2018-05-25T21:04:18.895Z,68.32
2018-05-25T21:06:49.892Z,68.79
2018-05-25T21:09:20.952Z,68.88
2018-05-25T21:11:51.958Z,69.27
2018-05-25T21:14:22.970Z,69.57
2018-05-25T21:16:53.994Z,69.68
2018-05-25T21:19:25.074Z,69.67
2018-05-25T21:21:56.090Z,69.50
2018-05-25T21:24:27.110Z,70.12
2018-05-25T21:26:58.671Z,70.42
2018-05-25T21:29:29.679Z,70.38
2018-05-25T21:32:00.748Z,70.31
2018-05-25T21:34:31.780Z,70.27
2018-05-25T21:37:02.836Z,70.44
2018-05-25T21:39:33.873Z,70.49
2018-05-25T21:42:04.882Z,70.55
2018-05-25T21:44:35.910Z,70.80
2018-05-25T21:47:06.932Z,71.07
2018-05-25T21:49:37.956Z,71.32
2018-05-25T21:52:08.940Z,71.29
2018-05-25T21:54:39.969Z,71.25
2018-05-25T21:57:10.984Z,71.34
2018-05-25T21:59:42.000Z,71.40
2018-05-25T22:02:13.084Z,71.38
2018-05-25T22:04:44.116Z,71.52
2018-05-25T22:07:15.155Z,71.67
2018-05-25T22:09:46.143Z,71.76
2018-05-25T22:12:17.172Z,71.92
2018-05-25T22:14:48.204Z,71.84
2018-05-25T22:17:19.216Z,72.04
2018-05-25T22:19:50.233Z,72.18
2018-05-25T22:22:21.230Z,72.18
2018-05-25T22:24:52.258Z,72.06
2018-05-25T22:27:23.292Z,72.09
2018-05-25T22:29:54.323Z,71.99
2018-05-25T22:32:25.353Z,71.95
2018-05-25T22:34:56.341Z,71.76
2018-05-25T22:37:27.330Z,71.89
2018-05-25T22:39:58.460Z,72.13
2018-05-25T22:42:41.755Z,71.84
2018-05-25T22:45:24.977Z,72.11
2018-05-25T22:48:08.226Z,72.38
2018-05-25T22:50:51.420Z,72.58
2018-05-25T22:53:28.342Z,72.66
2018-05-25T22:55:59.400Z,72.76
2018-05-25T22:58:30.403Z,72.87
2018-05-25T23:01:01.448Z,72.96
2018-05-25T23:03:32.461Z,72.97
2018-05-25T23:06:03.510Z,73.13
2018-05-25T23:08:34.533Z,73.28
2018-05-25T23:11:05.552Z,73.24
2018-05-25T23:13:36.529Z,72.94
2018-05-25T23:16:07.493Z,73.05
2018-05-25T23:18:38.591Z,73.04
2018-05-25T23:21:09.537Z,73.61
2018-05-25T23:23:40.559Z,73.74
2018-05-25T23:26:11.555Z,73.88
2018-05-25T23:28:42.644Z,74.06
2018-05-25T23:31:13.656Z,74.04
2018-05-25T23:33:44.675Z,74.14
2018-05-25T23:36:15.660Z,74.37
2018-05-25T23:38:46.669Z,74.64
2018-05-25T23:41:17.613Z,74.80
2018-05-25T23:43:48.676Z,74.64
2018-05-25T23:46:19.697Z,74.59
2018-05-25T23:48:50.671Z,74.62
2018-05-25T23:51:21.693Z,74.48
2018-05-25T23:53:52.682Z,74.39
2018-05-25T23:56:23.682Z,74.13
2018-05-25T23:58:54.638Z,74.24
